Time;durP1;ratioP1;P1;durP2;ratioP2;P2;SDS_P1;SDS_P2;PMS_P1;PMS_P2;Temp;Humidity;BMP_temperature;BMP_pressure;BME280_temperature;BME280_humidity;BME280_pressure;Samples;Min_cycle;Max_cycle;Signal;HPM_P1;HPM_P2
2021/05/23 07:00:58;;;;;;;3.08;0.70;;;;;;;15.00;63.17;98828.81;5643229;23;20090;-70
2021/05/23 07:03:25;;;;;;;2.33;0.80;;;;;;;15.29;63.94;98834.75;4927935;29;20036;-73
2021/05/23 07:05:50;;;;;;;1.55;0.70;;;;;;;15.22;64.87;98835.88;4924346;29;20115;-73
2021/05/23 07:08:18;;;;;;;3.42;0.73;;;;;;;15.26;64.69;98845.28;4919622;29;20060;-73
2021/05/23 07:10:43;;;;;;;1.17;0.70;;;;;;;14.18;65.00;98858.44;4890370;29;20549;-73
2021/05/23 07:13:08;;;;;;;0.75;0.68;;;;;;;13.65;65.60;98857.47;4847257;29;20044;-75
2021/05/23 07:15:34;;;;;;;2.78;0.90;;;;;;;13.60;66.28;98855.00;4888818;29;20067;-76
2021/05/23 07:17:59;;;;;;;1.80;0.80;;;;;;;13.32;68.86;98852.31;4891393;29;20029;-75
2021/05/23 07:20:24;;;;;;;1.50;0.60;;;;;;;13.87;68.48;98850.69;4884714;29;20092;-77
2021/05/23 07:22:50;;;;;;;1.08;0.80;;;;;;;14.04;65.24;98851.06;4879363;29;20025;-77
2021/05/23 07:25:16;;;;;;;5.55;0.82;;;;;;;15.55;59.10;98847.69;4888242;29;20100;-73
2021/05/23 07:27:42;;;;;;;0.55;0.55;;;;;;;15.96;57.87;98847.94;4884024;29;20447;-73
2021/05/23 07:30:08;;;;;;;1.10;0.60;;;;;;;16.80;54.66;98846.31;4876332;29;20035;-73
2021/05/23 07:32:33;;;;;;;1.30;0.70;;;;;;;18.81;50.66;98843.16;4884081;29;20080;-78
2021/05/23 07:34:58;;;;;;;2.70;0.70;;;;;;;18.71;48.78;98846.28;4892461;29;20028;-76
2021/05/23 07:37:24;;;;;;;4.13;2.67;;;;;;;19.98;48.59;98841.38;4886278;29;20040;-77
2021/05/23 07:39:49;;;;;;;1.13;0.90;;;;;;;19.44;45.71;98840.78;4889459;29;20025;-76
2021/05/23 07:42:15;;;;;;;1.77;0.90;;;;;;;19.29;45.20;98841.56;4886957;29;20092;-76
2021/05/23 07:44:40;;;;;;;2.33;0.70;;;;;;;19.73;43.99;98844.50;4885741;29;20021;-76
2021/05/23 07:47:05;;;;;;;2.60;0.65;;;;;;;17.10;49.72;98839.75;4885146;29;20533;-76
2021/05/23 07:49:31;;;;;;;2.35;0.80;;;;;;;15.93;53.84;98845.44;4888681;29;20033;-75
2021/05/23 07:51:56;;;;;;;1.20;0.70;;;;;;;17.08;50.43;98833.75;4883960;29;20474;-76
2021/05/23 07:54:21;;;;;;;7.53;4.10;;;;;;;18.59;49.61;98820.59;4886365;29;20032;-76
2021/05/23 07:56:47;;;;;;;2.50;1.25;;;;;;;18.04;48.87;98827.69;4886572;29;20025;-75
2021/05/23 07:59:12;;;;;;;2.20;0.60;;;;;;;18.17;46.34;98823.53;4885065;29;20036;-76
2021/05/23 08:01:37;;;;;;;3.17;1.00;;;;;;;19.44;45.37;98831.13;4889323;29;20061;-76
2021/05/23 08:04:03;;;;;;;2.55;0.80;;;;;;;19.33;45.13;98832.59;4883561;29;20029;-76
2021/05/23 08:06:30;;;;;;;2.70;0.70;;;;;;;16.21;52.06;98862.66;4885862;29;20020;-76
2021/05/23 08:08:55;;;;;;;3.35;1.40;;;;;;;14.39;59.95;98903.81;4881114;29;20047;-74
2021/05/23 08:11:21;;;;;;;2.70;1.75;;;;;;;11.88;72.57;98959.72;4888612;29;20363;-74
2021/05/23 08:13:46;;;;;;;6.50;1.45;;;;;;;10.02;81.02;98969.66;4882884;29;20029;-71
2021/05/23 08:16:11;;;;;;;4.85;1.23;;;;;;;9.49;82.00;98940.09;4886538;29;20029;-71
2021/05/23 08:18:38;;;;;;;4.60;1.40;;;;;;;9.52;82.08;98934.91;4871439;29;20045;-71
2021/05/23 08:21:05;;;;;;;15.10;10.00;;;;;;;9.42;82.74;98933.25;4886721;29;20492;-71
2021/05/23 08:23:31;;;;;;;2.15;1.42;;;;;;;9.17;79.34;98937.81;4878577;29;20056;-72
2021/05/23 08:25:58;;;;;;;4.32;1.52;;;;;;;8.89;81.04;98942.38;4881083;29;20017;-72
2021/05/23 08:28:24;;;;;;;5.90;1.70;;;;;;;8.87;83.09;98933.81;4887701;29;20032;-74
2021/05/23 08:30:50;;;;;;;2.05;1.10;;;;;;;9.42;82.11;98937.56;4889258;29;20048;-74
2021/05/23 08:33:15;;;;;;;1.70;1.30;;;;;;;8.80;80.21;98952.81;4889454;29;20072;-72
2021/05/23 08:35:41;;;;;;;2.20;1.00;;;;;;;8.78;81.89;98948.53;4885328;29;20029;-76
2021/05/23 08:38:07;;;;;;;2.38;1.38;;;;;;;9.93;82.19;98941.28;4889901;29;20028;-71
2021/05/23 08:40:34;;;;;;;3.33;2.17;;;;;;;11.92;72.20;98938.00;4887764;29;20055;-75
2021/05/23 08:43:01;;;;;;;1.60;1.20;;;;;;;15.49;61.36;98921.03;4885056;29;20372;-76
2021/05/23 08:45:27;;;;;;;18.80;10.85;;;;;;;18.91;48.22;98910.91;4882590;29;20035;-72
2021/05/23 08:47:52;;;;;;;2.00;1.60;;;;;;;19.52;46.29;98912.16;4888077;29;20024;-72
2021/05/23 08:50:20;;;;;;;3.08;0.93;;;;;;;18.50;48.11;98933.88;4884081;29;20064;-77
2021/05/23 08:52:53;;;;;;;1.15;0.60;;;;;;;20.50;44.14;98927.97;4873451;29;20025;-77
2021/05/23 08:55:20;;;;;;;1.08;0.60;;;;;;;22.08;39.42;98927.38;4884744;29;20071;-77
2021/05/23 08:57:46;;;;;;;3.40;1.90;;;;;;;22.14;40.33;98931.44;4889394;29;20062;-77
2021/05/23 09:00:12;;;;;;;3.13;1.40;;;;;;;21.58;43.26;98923.44;4887092;29;20029;-76
2021/05/23 09:02:52;;;;;;;1.00;0.82;;;;;;;24.86;34.69;98913.66;4891422;29;20510;-77
2021/05/23 09:05:29;;;;;;;1.65;0.88;;;;;;;25.86;32.34;98914.88;4882798;29;20029;-77
2021/05/23 09:07:55;;;;;;;4.35;0.90;;;;;;;23.08;38.42;98924.47;4874917;29;20032;-76
2021/05/23 09:10:30;;;;;;;1.58;1.00;;;;;;;25.18;35.62;98917.53;4885731;29;20037;-77
2021/05/23 09:12:56;;;;;;;3.47;2.10;;;;;;;26.36;33.44;98911.84;4884568;29;20018;-76
2021/05/23 09:15:23;;;;;;;0.80;0.50;;;;;;;22.43;37.92;98927.81;4889765;29;20051;-73
2021/05/23 09:18:12;;;;;;;6.13;5.25;;;;;;;20.10;43.11;98934.53;4879939;29;20025;-73
2021/05/23 09:20:41;;;;;;;1.60;0.80;;;;;;;16.32;55.88;98950.22;4888307;29;20104;-72
2021/05/23 09:23:11;;;;;;;;;;;;;;;16.25;58.02;98937.47;4877306;29;20123;-73
2021/05/23 09:25:37;;;;;;;3.00;1.25;;;;;;;14.91;60.98;98933.50;4876114;29;19919;-72
2021/05/23 09:28:05;;;;;;;1.63;0.80;;;;;;;14.33;59.91;98930.09;4888530;29;20043;-72
2021/05/23 09:30:33;;;;;;;3.90;1.13;;;;;;;13.88;66.51;98944.44;4889390;29;20107;-76
2021/05/23 09:32:58;;;;;;;4.90;1.00;;;;;;;13.81;66.39;98936.84;4887987;29;20016;-72
2021/05/23 09:35:26;;;;;;;2.28;1.00;;;;;;;13.85;63.63;98933.25;4892729;29;20036;-72
2021/05/23 09:38:06;;;;;;;4.25;1.17;;;;;;;14.09;62.53;98935.16;4886886;29;20028;-74
2021/05/23 09:40:33;;;;;;;;;;;;;;;13.90;63.95;98933.97;4874159;29;20561;-74
2021/05/23 09:42:59;;;;;;;2.30;0.85;;;;;;;13.87;65.53;98931.44;4888742;29;20396;-74
2021/05/23 09:45:38;;;;;;;23.58;13.23;;;;;;;13.80;68.36;98935.13;4887220;29;20506;-77
2021/05/23 09:48:06;;;;;;;3.53;1.50;;;;;;;13.31;66.76;98936.50;4877996;29;20025;-72
2021/05/23 09:50:37;;;;;;;3.75;0.95;;;;;;;13.09;66.67;98941.34;4881217;29;20046;-74
2021/05/23 09:53:15;;;;;;;2.28;1.10;;;;;;;15.79;61.50;98928.72;4877502;29;20033;-75
2021/05/23 09:55:59;;;;;;;6.72;1.20;;;;;;;18.27;54.91;98918.38;4887147;29;20021;-75
2021/05/23 09:58:31;;;;;;;45.55;23.20;;;;;;;17.46;54.71;98930.75;4877155;29;20060;-74
2021/05/23 10:00:57;;;;;;;2.95;1.00;;;;;;;15.75;57.26;98937.56;4885653;29;20033;-72
2021/05/23 10:03:25;;;;;;;3.22;1.10;;;;;;;14.19;62.46;98958.31;4883372;29;20113;-72
2021/05/23 10:05:51;;;;;;;1.92;1.00;;;;;;;13.86;63.78;98955.78;4889507;29;20039;-77
2021/05/23 10:08:16;;;;;;;4.72;1.20;;;;;;;13.61;66.22;98959.09;4875493;29;20039;-75
2021/05/23 10:10:42;;;;;;;1.52;1.02;;;;;;;13.30;64.85;98955.59;4888201;29;20127;-72
2021/05/23 10:13:08;;;;;;;3.33;1.00;;;;;;;13.07;68.18;98975.22;4885738;29;20545;-76
2021/05/23 10:15:33;;;;;;;2.80;1.00;;;;;;;13.01;69.96;98990.13;4884834;29;20111;-75
2021/05/23 10:17:59;;;;;;;3.75;0.80;;;;;;;12.09;70.00;99002.59;4887113;29;20198;-74
2021/05/23 10:20:28;;;;;;;2.40;0.93;;;;;;;11.38;74.64;99008.22;4884250;29;20060;-74
2021/05/23 10:22:56;;;;;;;3.80;1.38;;;;;;;11.53;75.98;99005.34;4886356;29;20047;-71
2021/05/23 10:25:22;;;;;;;1.42;1.20;;;;;;;11.59;79.35;99020.81;4871819;29;20039;-72
2021/05/23 10:27:48;;;;;;;1.77;0.77;;;;;;;11.43;76.80;99021.97;4877623;29;20032;-72
2021/05/23 10:30:14;;;;;;;1.45;0.80;;;;;;;11.59;76.00;99017.34;4886568;29;20630;-76
2021/05/23 10:32:42;;;;;;;1.52;0.70;;;;;;;13.24;70.27;99003.44;4889083;29;20075;-77
2021/05/23 10:35:32;;;;;;;2.38;0.70;;;;;;;15.01;62.74;98997.50;4882208;29;20036;-77
2021/05/23 10:38:07;;;;;;;3.50;1.00;;;;;;;17.38;57.60;98972.16;4872445;29;20033;-72
2021/05/23 10:40:32;;;;;;;2.45;0.60;;;;;;;19.57;51.37;98967.97;4870707;29;20117;-72
2021/05/23 10:43:01;;;;;;;1.00;0.60;;;;;;;21.91;45.35;98964.53;4857128;29;20032;-72
2021/05/23 10:45:32;;;;;;;1.45;0.70;;;;;;;22.23;41.98;98976.59;4856307;29;20060;-72
2021/05/23 10:48:10;;;;;;;1.90;0.57;;;;;;;22.13;43.64;98970.19;4870385;29;20403;-72
2021/05/23 10:50:37;;;;;;;0.73;0.52;;;;;;;22.40;41.07;98964.16;4869490;29;20070;-72
2021/05/23 10:53:03;;;;;;;3.83;0.75;;;;;;;22.64;42.85;98961.72;4870342;29;20028;-77
2021/05/23 10:55:30;;;;;;;1.63;0.52;;;;;;;24.04;38.10;98954.09;4869484;29;20033;-72
2021/05/23 10:57:56;;;;;;;1.35;0.75;;;;;;;24.17;37.01;98951.38;4870567;29;20036;-77
2021/05/23 11:00:27;;;;;;;1.27;0.77;;;;;;;22.72;40.56;98960.25;4869546;29;20108;-75
2021/05/23 11:02:57;;;;;;;1.25;0.77;;;;;;;20.60;42.08;98959.88;4870292;29;20090;-77
2021/05/23 11:05:29;;;;;;;;;;;;;;;23.37;41.29;98937.53;4869849;29;20112;-77
2021/05/23 11:08:03;;;;;;;1.23;0.77;;;;;;;22.88;38.03;98948.72;4869961;29;19963;-72
2021/05/23 11:10:41;;;;;;;2.08;0.55;;;;;;;16.84;50.80;98957.81;4869644;29;20024;-75
2021/05/23 11:13:08;;;;;;;1.45;0.80;;;;;;;17.63;50.56;98957.06;4870371;29;20029;-75
2021/05/23 11:15:39;;;;;;;0.98;0.63;;;;;;;17.16;50.85;98953.84;4869742;29;20029;-75
2021/05/23 11:18:05;;;;;;;0.93;0.60;;;;;;;16.57;55.66;98957.94;4869536;29;20025;-74
2021/05/23 11:20:30;;;;;;;1.58;0.93;;;;;;;15.72;60.06;98963.81;4870174;29;20036;-75
2021/05/23 11:22:58;;;;;;;2.85;0.95;;;;;;;14.31;60.83;98968.38;4870058;29;20032;-75
2021/05/23 11:25:25;;;;;;;1.80;0.68;;;;;;;14.57;59.73;98965.03;4870108;29;21247;-75
2021/05/23 11:27:58;;;;;;;2.95;0.75;;;;;;;14.42;63.56;98955.88;4869142;29;20033;-75
2021/05/23 11:30:25;;;;;;;1.33;0.60;;;;;;;14.14;61.82;98956.72;4869907;29;20048;-75
2021/05/23 11:33:05;;;;;;;2.03;0.80;;;;;;;14.06;64.91;98963.88;4869566;29;20029;-75
2021/05/23 11:35:33;;;;;;;2.92;0.90;;;;;;;14.06;63.93;98965.63;4881320;29;20052;-75
2021/05/23 11:37:59;;;;;;;2.42;1.05;;;;;;;14.12;64.58;98979.38;4874776;29;20040;-75
2021/05/23 11:40:32;;;;;;;2.22;1.20;;;;;;;13.49;68.83;98990.66;4879154;29;20036;-75
2021/05/23 11:43:17;;;;;;;4.95;1.45;;;;;;;12.99;73.16;99005.75;4876735;29;20065;-75
2021/05/23 11:45:51;;;;;;;3.03;1.05;;;;;;;12.21;66.74;99006.66;4869258;29;20123;-74
2021/05/23 11:48:17;;;;;;;3.70;1.52;;;;;;;11.75;69.81;99003.22;4869234;29;20033;-75
2021/05/23 11:50:43;;;;;;;5.57;1.42;;;;;;;11.97;74.73;98987.25;4870105;29;20025;-74
2021/05/23 11:53:09;;;;;;;2.85;1.20;;;;;;;12.80;79.27;98984.53;4869672;29;20557;-72
2021/05/23 11:55:35;;;;;;;2.25;0.95;;;;;;;13.44;73.94;98974.31;4869335;29;20103;-71
2021/05/23 11:58:09;;;;;;;2.25;1.10;;;;;;;14.24;77.83;98977.28;4869321;29;20029;-76
2021/05/23 12:00:36;;;;;;;4.68;1.30;;;;;;;14.87;73.48;98973.63;4869295;29;20045;-76
2021/05/23 12:03:03;;;;;;;1.27;1.00;;;;;;;14.79;69.79;98970.41;4869225;29;20032;-78
2021/05/23 12:05:42;;;;;;;2.05;1.08;;;;;;;14.84;73.11;98964.16;4869645;29;20039;-74
2021/05/23 12:08:19;;;;;;;3.13;1.10;;;;;;;15.26;67.22;98954.94;4868567;29;20058;-72
2021/05/23 12:11:04;;;;;;;2.17;0.88;;;;;;;15.15;71.56;98953.53;4869203;29;21235;-72
2021/05/23 12:13:55;;;;;;;2.00;0.90;;;;;;;15.94;64.51;98946.44;4869286;29;20028;-72
2021/05/23 12:16:23;;;;;;;3.08;1.05;;;;;;;15.57;63.67;98945.16;4867052;29;20049;-76
2021/05/23 12:18:54;;;;;;;4.10;1.30;;;;;;;15.74;69.23;98934.09;4869384;29;20071;-77
2021/05/23 12:21:22;;;;;;;1.20;0.80;;;;;;;15.49;68.13;98939.31;4869326;29;20029;-77
2021/05/23 12:23:52;;;;;;;2.60;1.20;;;;;;;16.06;66.73;98940.75;4869367;29;20029;-76
2021/05/23 12:26:18;;;;;;;0.80;0.73;;;;;;;16.04;62.32;98942.56;4868997;29;20064;-72
2021/05/23 12:28:48;;;;;;;2.88;1.00;;;;;;;14.53;63.60;98940.78;4869302;29;20036;-74
2021/05/23 12:31:17;;;;;;;3.55;1.00;;;;;;;15.94;67.91;98933.38;4869776;29;20039;-74
2021/05/23 12:33:55;;;;;;;2.08;1.70;;;;;;;16.87;61.06;98926.25;4870134;29;20261;-72
2021/05/23 12:36:22;;;;;;;2.00;1.05;;;;;;;16.72;59.90;98921.66;4868657;29;20043;-72
2021/05/23 12:39:05;;;;;;;1.65;0.68;;;;;;;17.15;56.30;98921.56;4841100;29;20383;-72
2021/05/23 12:41:40;;;;;;;1.42;0.90;;;;;;;16.13;61.08;98913.47;4855762;29;20036;-72
2021/05/23 12:44:23;;;;;;;2.75;0.80;;;;;;;16.28;59.46;98913.78;4869137;29;20380;-72
2021/05/23 12:46:49;;;;;;;1.85;0.80;;;;;;;16.21;58.38;98920.19;4856874;29;20130;-72
2021/05/23 12:49:15;;;;;;;1.00;1.00;;;;;;;16.12;57.26;98919.59;4870551;29;20065;-72
2021/05/23 12:51:46;;;;;;;1.98;0.70;;;;;;;16.35;54.97;98920.50;4872638;29;21044;-74
2021/05/23 12:54:22;;;;;;;5.47;0.80;;;;;;;16.38;58.55;98909.91;4872008;29;20072;-76
2021/05/23 12:56:49;;;;;;;1.10;0.70;;;;;;;16.27;50.45;98906.84;4855153;29;20028;-76
2021/05/23 12:59:16;;;;;;;2.63;0.80;;;;;;;16.36;56.90;98909.13;4873098;29;20029;-76
2021/05/23 13:01:43;;;;;;;3.58;0.80;;;;;;;16.39;53.97;98911.59;4872622;29;20029;-76
2021/05/23 13:04:19;;;;;;;1.65;0.88;;;;;;;17.01;56.14;98912.59;4872599;29;20033;-76
2021/05/23 13:07:00;;;;;;;1.73;0.73;;;;;;;17.15;52.69;98905.88;4871016;29;20040;-76
2021/05/23 13:09:44;;;;;;;1.27;0.70;;;;;;;16.78;49.58;98905.69;4872211;29;20029;-74
2021/05/23 13:12:23;;;;;;;1.50;0.90;;;;;;;15.71;48.34;98925.50;4872513;29;20036;-75
2021/05/23 13:15:00;;;;;;;8.10;3.70;;;;;;;14.89;51.70;98914.41;4928473;23;20040;-70
2021/05/23 13:17:30;;;;;;;1.75;0.93;;;;;;;14.69;53.51;98938.53;4898931;29;20032;-70
2021/05/23 13:19:56;;;;;;;1.35;0.68;;;;;;;14.87;54.40;98942.31;4899026;29;20043;-70
2021/05/23 13:22:22;;;;;;;2.95;0.88;;;;;;;14.83;51.04;98925.06;4898299;29;20517;-70
2021/05/23 13:24:48;;;;;;;0.70;0.70;;;;;;;15.42;56.71;98924.75;4892467;29;20036;-71
2021/05/23 13:27:18;;;;;;;1.90;1.00;;;;;;;15.84;52.31;98921.56;4886671;29;20076;-70
2021/05/23 13:29:45;;;;;;;1.67;0.80;;;;;;;16.27;54.07;98919.94;4890680;29;20056;-70
2021/05/23 13:32:10;;;;;;;0.80;0.70;;;;;;;16.59;51.41;98922.13;4890572;29;20029;-71
2021/05/23 13:34:36;;;;;;;1.50;0.70;;;;;;;16.55;48.24;98925.78;4890370;29;20037;-70
2021/05/23 13:37:02;;;;;;;14.70;10.40;;;;;;;16.44;49.10;98917.53;4890352;29;20115;-71
2021/05/23 13:39:28;;;;;;;0.52;0.52;;;;;;;16.48;45.65;98919.06;4890288;29;20032;-70
2021/05/23 13:41:53;;;;;;;2.47;0.47;;;;;;;16.98;45.43;98912.75;4890373;29;20974;-71
2021/05/23 13:44:19;;;;;;;0.80;0.50;;;;;;;16.74;43.87;98920.69;4889856;29;20029;-70
2021/05/23 13:46:46;;;;;;;1.05;0.82;;;;;;;16.88;46.69;98912.28;4873355;29;20028;-71
2021/05/23 13:49:12;;;;;;;1.48;0.63;;;;;;;17.20;49.31;98914.38;4890315;29;20036;-70
2021/05/23 13:51:40;;;;;;;1.08;0.50;;;;;;;18.07;44.76;98922.78;4889810;29;20036;-70
2021/05/23 13:54:06;;;;;;;1.08;0.63;;;;;;;17.14;41.04;98908.56;4890251;29;20028;-70
2021/05/23 13:56:32;;;;;;;12.23;5.88;;;;;;;17.00;43.69;98906.53;4889866;29;20056;-70
2021/05/23 13:58:58;;;;;;;2.55;0.90;;;;;;;17.08;41.09;98907.06;4889859;29;20044;-70
2021/05/23 14:01:24;;;;;;;1.33;0.43;;;;;;;16.72;40.69;98898.97;4888894;29;20028;-70
2021/05/23 14:03:49;;;;;;;2.35;0.70;;;;;;;16.77;42.07;98894.38;4889995;29;20056;-71
2021/05/23 14:06:14;;;;;;;1.10;0.75;;;;;;;17.00;44.15;98890.81;4889915;29;20512;-70
2021/05/23 14:08:40;;;;;;;3.42;0.60;;;;;;;16.91;43.83;98889.44;4889559;29;20040;-71
2021/05/23 14:11:07;;;;;;;0.85;0.45;;;;;;;17.09;43.79;98885.19;4889939;29;20033;-70
2021/05/23 14:13:35;;;;;;;1.00;0.63;;;;;;;17.11;40.28;98888.59;4872943;29;20029;-70
2021/05/23 14:16:02;;;;;;;2.63;0.93;;;;;;;17.34;42.70;98884.97;4889852;29;20505;-70
2021/05/23 14:18:34;;;;;;;2.80;1.13;;;;;;;17.53;41.42;98873.69;4889676;29;20044;-70
2021/05/23 14:21:05;;;;;;;2.25;1.10;;;;;;;17.90;42.80;98873.75;4889760;29;20486;-71
2021/05/23 14:23:30;;;;;;;3.83;0.90;;;;;;;18.23;39.42;98860.84;4889550;29;20096;-72
2021/05/23 14:25:56;;;;;;;2.83;0.60;;;;;;;17.99;42.44;98862.00;4889352;29;20024;-70
2021/05/23 14:28:22;;;;;;;0.57;0.55;;;;;;;17.84;41.72;98857.44;4889403;29;20490;-71
2021/05/23 14:30:49;;;;;;;2.05;1.23;;;;;;;17.23;42.88;98860.19;4889323;29;20032;-70
2021/05/23 14:33:15;;;;;;;10.35;3.58;;;;;;;16.99;42.13;98860.31;4889271;29;20107;-70
2021/05/23 14:35:40;;;;;;;1.45;0.63;;;;;;;17.11;44.81;98862.41;4889368;29;20093;-71
2021/05/23 14:38:06;;;;;;;0.95;0.70;;;;;;;17.90;43.32;98867.66;4889335;29;20024;-71
2021/05/23 14:40:33;;;;;;;2.28;0.93;;;;;;;18.62;40.50;98857.19;4889389;29;20073;-70
2021/05/23 14:42:59;;;;;;;2.15;1.30;;;;;;;19.13;40.94;98858.13;4889155;29;20100;-70
2021/05/23 14:45:25;;;;;;;1.05;0.77;;;;;;;19.54;40.83;98857.75;4889359;29;20029;-71
2021/05/23 14:47:50;;;;;;;2.83;0.82;;;;;;;19.89;37.58;98852.41;4889046;29;20036;-71
2021/05/23 14:50:16;;;;;;;2.17;0.70;;;;;;;19.97;39.77;98852.84;4889228;29;20032;-70
2021/05/23 14:52:41;;;;;;;0.82;0.70;;;;;;;19.24;39.39;98855.81;4888791;29;20068;-70
2021/05/23 14:55:09;;;;;;;3.00;0.80;;;;;;;19.44;37.63;98852.16;4888822;29;20116;-70
2021/05/23 14:57:40;;;;;;;2.08;0.70;;;;;;;19.34;39.06;98861.44;4888253;29;20064;-70
2021/05/23 15:00:11;;;;;;;0.50;0.50;;;;;;;19.76;37.42;98853.06;4889110;29;21479;-71
2021/05/23 15:02:36;;;;;;;2.22;0.80;;;;;;;19.60;35.99;98857.47;4888715;29;20033;-70
2021/05/23 15:05:03;;;;;;;2.72;0.52;;;;;;;19.60;34.46;98852.19;4888685;29;20036;-71
2021/05/23 15:07:29;;;;;;;0.63;0.60;;;;;;;19.44;35.47;98861.81;4888567;29;20115;-70
2021/05/23 15:09:54;;;;;;;1.48;0.60;;;;;;;19.25;35.65;98860.13;4888905;29;20393;-71
2021/05/23 15:12:19;;;;;;;1.23;0.60;;;;;;;19.43;33.54;98853.06;4888803;29;20470;-71
2021/05/23 15:14:45;;;;;;;0.60;0.50;;;;;;;19.04;35.93;98858.59;4888713;29;20115;-70
2021/05/23 15:17:10;;;;;;;2.45;0.75;;;;;;;18.54;37.96;98859.34;4888468;29;20028;-70
2021/05/23 15:19:36;;;;;;;3.55;0.70;;;;;;;17.79;37.45;98864.66;4888543;29;20043;-70
2021/05/23 15:22:01;;;;;;;1.52;0.70;;;;;;;17.49;38.06;98862.50;4888589;29;20040;-70
2021/05/23 15:24:29;;;;;;;3.88;0.63;;;;;;;17.25;38.14;98859.19;4888227;29;20040;-70
2021/05/23 15:27:00;;;;;;;0.65;0.40;;;;;;;17.15;39.74;98858.72;4888498;29;20034;-70
2021/05/23 15:32:11;;;;;;;1.33;0.90;;;;;;;16.96;42.15;98863.06;4888509;29;20711;-71
2021/05/23 15:34:37;;;;;;;3.10;0.65;;;;;;;16.78;40.60;98858.59;4887879;29;20035;-71
2021/05/23 15:37:03;;;;;;;1.15;0.60;;;;;;;16.76;41.67;98860.44;4888438;29;20032;-70
2021/05/23 15:39:28;;;;;;;1.65;0.60;;;;;;;16.80;41.69;98862.03;4888250;29;20104;-71
2021/05/23 15:41:54;;;;;;;3.22;0.70;;;;;;;16.83;41.79;98856.66;4888489;29;20036;-70
2021/05/23 15:44:19;;;;;;;2.22;0.60;;;;;;;16.61;40.73;98852.28;4888408;29;20043;-71
2021/05/23 15:46:45;;;;;;;1.50;0.80;;;;;;;16.70;45.45;98851.91;4888239;29;20036;-71
2021/05/23 15:49:11;;;;;;;2.15;0.70;;;;;;;16.66;41.88;98860.78;4886995;29;20534;-71
2021/05/23 15:51:37;;;;;;;1.27;0.70;;;;;;;16.48;42.09;98856.31;4886665;29;20033;-71
2021/05/23 15:54:04;;;;;;;4.28;2.47;;;;;;;16.65;45.39;98863.47;4886656;29;20029;-71
2021/05/23 15:56:29;;;;;;;1.65;0.70;;;;;;;17.03;43.56;98856.66;4886183;29;20036;-71
2021/05/23 15:58:55;;;;;;;2.28;1.13;;;;;;;17.81;41.11;98854.97;4886462;29;20035;-71
2021/05/23 16:01:21;;;;;;;0.75;0.75;;;;;;;18.32;40.32;98848.19;4886452;29;20036;-71
2021/05/23 16:03:49;;;;;;;28.17;15.75;;;;;;;18.93;38.79;98840.78;4887053;29;20048;-71
2021/05/23 16:06:23;;;;;;;2.95;1.70;;;;;;;18.94;37.90;98841.63;4888025;29;20044;-71
2021/05/23 16:08:49;;;;;;;4.35;2.53;;;;;;;18.38;38.98;98843.50;4887143;29;21443;-71
2021/05/23 16:11:16;;;;;;;12.45;7.93;;;;;;;17.62;39.66;98853.16;4884924;29;20032;-72
2021/05/23 16:13:43;;;;;;;7.63;3.85;;;;;;;17.28;39.56;98848.59;4887708;29;20032;-71
2021/05/23 16:16:09;;;;;;;6.53;4.03;;;;;;;17.71;39.94;98847.50;4887901;29;20048;-70
2021/05/23 16:18:35;;;;;;;3.03;2.10;;;;;;;18.26;40.46;98843.25;4887878;29;20036;-71
2021/05/23 16:21:01;;;;;;;2.15;1.75;;;;;;;18.43;40.95;98840.66;4887799;29;20084;-71
2021/05/23 16:23:26;;;;;;;10.85;6.78;;;;;;;18.36;40.39;98844.50;4887965;29;20036;-72
2021/05/23 16:25:52;;;;;;;6.10;1.25;;;;;;;17.63;39.44;98857.47;4891733;29;20409;-71
2021/05/23 16:28:17;;;;;;;3.75;0.68;;;;;;;16.95;41.49;98843.03;4891948;29;20079;-71
2021/05/23 16:30:42;;;;;;;4.30;1.42;;;;;;;16.94;42.25;98838.72;4891593;29;20088;-71
2021/05/23 16:33:08;;;;;;;2.95;0.70;;;;;;;16.84;42.46;98850.50;4891805;29;20036;-71
2021/05/23 16:35:33;;;;;;;1.50;0.68;;;;;;;16.98;41.56;98840.31;4891536;29;20418;-71
2021/05/23 16:37:59;;;;;;;2.53;0.65;;;;;;;16.91;40.04;98834.47;4891495;29;20045;-71
2021/05/23 16:40:24;;;;;;;1.35;0.52;;;;;;;17.00;40.32;98838.47;4891709;29;20048;-71
2021/05/23 16:42:50;;;;;;;2.70;0.90;;;;;;;17.18;41.18;98832.44;4891357;29;20111;-70
2021/05/23 16:45:16;;;;;;;1.17;0.73;;;;;;;16.92;39.82;98836.19;4891198;29;20025;-70
2021/05/23 16:47:45;;;;;;;1.23;0.60;;;;;;;17.24;42.71;98831.31;4891218;29;20040;-71
2021/05/23 16:50:15;;;;;;;1.45;0.80;;;;;;;17.42;41.24;98838.34;4889869;29;20398;-71
2021/05/23 16:52:42;;;;;;;5.15;0.90;;;;;;;17.62;40.32;98840.06;4891346;29;20036;-71
2021/05/23 16:55:08;;;;;;;4.93;1.77;;;;;;;17.84;40.50;98831.22;4891323;29;20039;-71
2021/05/23 16:57:34;;;;;;;2.88;1.33;;;;;;;17.76;39.87;98830.75;4891115;29;20489;-71
2021/05/23 17:00:00;;;;;;;18.10;12.48;;;;;;;17.83;40.50;98824.28;4891159;29;20064;-71
2021/05/23 17:02:25;;;;;;;5.10;3.05;;;;;;;17.98;39.16;98834.06;4891142;29;20099;-72
2021/05/23 17:04:50;;;;;;;2.85;1.50;;;;;;;17.95;39.14;98834.22;4891007;29;20450;-71
2021/05/23 17:07:22;;;;;;;2.15;1.10;;;;;;;17.81;37.97;98831.38;4891104;29;20557;-71
2021/05/23 17:09:53;;;;;;;5.90;2.63;;;;;;;18.03;38.04;98821.56;4874222;29;20581;-71
2021/05/23 17:12:19;;;;;;;3.28;1.10;;;;;;;18.06;37.51;98825.84;4890987;29;20032;-70
2021/05/23 17:14:44;;;;;;;1.38;0.90;;;;;;;18.34;36.24;98820.13;4890901;29;20075;-72
2021/05/23 17:17:10;;;;;;;1.35;1.02;;;;;;;18.49;36.70;98819.34;4890731;29;21277;-73
2021/05/23 17:19:36;;;;;;;6.18;2.90;;;;;;;18.68;37.44;98829.78;4891006;29;20123;-76
2021/05/23 17:22:03;;;;;;;5.05;2.33;;;;;;;18.56;36.55;98825.97;4889347;29;20045;-75
2021/05/23 17:24:29;;;;;;;3.72;2.13;;;;;;;17.39;39.39;98840.25;4890619;29;20068;-73
2021/05/23 17:26:54;;;;;;;4.95;1.50;;;;;;;16.79;41.53;98839.38;4873651;29;20494;-72
2021/05/23 17:29:19;;;;;;;2.40;1.42;;;;;;;16.22;44.11;98848.66;4890550;29;20042;-72
2021/05/23 17:31:45;;;;;;;2.47;0.65;;;;;;;16.17;44.30;98841.00;4890466;29;20213;-72
2021/05/23 17:34:10;;;;;;;1.45;0.95;;;;;;;16.10;45.15;98843.03;4890474;29;20071;-71
2021/05/23 17:36:36;;;;;;;1.00;0.75;;;;;;;16.33;44.83;98841.25;4889028;29;20048;-74
2021/05/23 17:39:03;;;;;;;23.88;16.10;;;;;;;16.09;44.50;98843.91;4890533;29;20044;-75
2021/05/23 17:41:28;;;;;;;5.22;0.90;;;;;;;15.86;44.95;98846.59;4890410;29;20037;-75
2021/05/23 17:43:54;;;;;;;3.33;0.70;;;;;;;15.44;45.22;98847.25;4890471;29;20099;-72
2021/05/23 17:46:19;;;;;;;3.95;1.38;;;;;;;15.12;45.35;98841.41;4885610;29;20115;-72
2021/05/23 17:48:44;;;;;;;5.35;1.55;;;;;;;15.19;46.01;98849.03;4890376;29;20039;-70
2021/05/23 17:51:10;;;;;;;9.25;4.05;;;;;;;15.19;47.73;98849.03;4890251;29;20029;-71
2021/05/23 17:53:35;;;;;;;1.88;1.40;;;;;;;15.10;46.85;98845.84;4889496;29;20016;-71
2021/05/23 17:56:01;;;;;;;3.92;1.55;;;;;;;15.07;46.51;98850.31;4890265;29;20044;-71
2021/05/23 17:58:26;;;;;;;8.40;3.42;;;;;;;15.27;48.48;98852.22;4889824;29;20080;-71
2021/05/23 18:00:52;;;;;;;9.23;5.53;;;;;;;15.40;47.51;98845.66;4890209;29;20044;-71
2021/05/23 18:03:17;;;;;;;15.63;8.38;;;;;;;15.37;47.34;98851.81;4889813;29;20188;-71
2021/05/23 18:05:43;;;;;;;7.95;4.65;;;;;;;15.62;47.03;98854.41;4889958;29;20482;-71
2021/05/23 18:08:09;;;;;;;7.95;4.90;;;;;;;15.24;47.63;98852.34;4889539;29;20025;-71
2021/05/23 18:10:35;;;;;;;17.70;9.35;;;;;;;14.91;50.10;98855.22;4889578;29;20112;-71
2021/05/23 18:13:00;;;;;;;9.10;5.07;;;;;;;14.70;49.74;98854.19;4889729;29;20087;-71
2021/05/23 18:15:26;;;;;;;4.97;2.65;;;;;;;14.28;51.50;98854.66;4889431;29;20398;-71
2021/05/23 18:17:52;;;;;;;13.52;4.90;;;;;;;14.15;52.00;98859.38;4889834;29;20052;-71
2021/05/23 18:20:20;;;;;;;5.55;3.83;;;;;;;13.93;54.06;98858.34;4889937;29;20498;-71
2021/05/23 18:22:46;;;;;;;7.95;4.22;;;;;;;13.63;56.86;98866.19;4888066;29;20400;-71
2021/05/23 18:25:15;;;;;;;9.88;5.55;;;;;;;13.67;56.29;98855.66;4889591;29;20126;-70
2021/05/23 18:27:41;;;;;;;9.90;3.95;;;;;;;13.49;56.03;98857.91;4889499;29;20112;-71
2021/05/23 18:30:07;;;;;;;6.90;3.83;;;;;;;13.52;55.90;98856.97;4889700;29;20058;-71
2021/05/23 18:32:32;;;;;;;8.75;4.68;;;;;;;13.13;57.31;98871.00;4889170;29;20036;-71
2021/05/23 18:35:00;;;;;;;5.43;3.80;;;;;;;13.12;58.18;98860.63;4889493;29;20479;-71
2021/05/23 18:37:25;;;;;;;7.47;4.85;;;;;;;12.97;60.51;98858.44;4889241;29;20036;-71
2021/05/23 18:39:52;;;;;;;4.82;3.20;;;;;;;12.98;58.89;98857.56;4889056;29;20032;-71